CheckWX is a tool to help pilots better visualize weather data.  It is not intended as a substitute for an official pre-flight weather briefing.

20:45:41 UTC

KMHT METAR
Manchester Airport
Manchester, New Hampshire, USA
Current

17 mins ago

KMHT 182029Z 35007KT 2SM -SN SCT011 BKN038 OVC050 M03/M06 A2986 RMK AO2 SFC VIS 4 P0000 T10331061 $
Observed
Feb-18 @ 20:29 UTC
Wind
  • 350° at 7 KTS
Visibility
2 SM
Flight Rules
IFR
Conditions
Light Snow
Cloud Levels
  • Scattered at 1,100' AGL
  • Broken at 3,800' AGL
  • Overcast at 5,000' AGL
Temperature
-3°C / 27°F
Dewpoint
-6°C / 21°F
Humidity
80%
Altimeter
29.86" Hg
Pressure
1011.22 hPa
Current Rain
0.01"
Previous

20 mins ago

KMHT 182026Z 35008KT 1SM R35/P6000FT -SN SCT011 BKN038 OVC050 M03/M06 A2986 RMK AO2 SFC VIS 4 P0000 T10331061 $
Observed
Feb-18 @ 20:26 UTC
Wind
  • 350° at 8 KTS
Visibility
1 SM
Flight Rules
IFR
Conditions
Light Snow
Cloud Levels
  • Scattered at 1,100' AGL
  • Broken at 3,800' AGL
  • Overcast at 5,000' AGL
Temperature
-3°C / 27°F
Dewpoint
-6°C / 21°F
Humidity
80%
Altimeter
29.86" Hg
Pressure
1011.22 hPa
Current Rain
0.01"
Previous

53 mins ago

KMHT 181953Z 35007KT 1SM R35/6000VP6000FT -SN SCT009 BKN025 OVC040 M03/M06 A2984 RMK AO2 SFC VIS 1 1/2 SLP122 P0000 T10331061 $
Observed
Feb-18 @ 19:53 UTC
Wind
  • 350° at 7 KTS
Visibility
1 SM
Flight Rules
IFR
Conditions
Light Snow
Cloud Levels
  • Scattered at 900' AGL
  • Broken at 2,500' AGL
  • Overcast at 4,000' AGL
Temperature
-3°C / 27°F
Dewpoint
-6°C / 21°F
Humidity
80%
Altimeter
29.84" Hg
Pressure
1012.2 hPa
Current Rain
0.01"